Otagawa — JD3046 — position and weather

sailwx.info

Track history (hours):
 
Tides and Currents Weather Stations Pressure Air Temp Water Temp Dewpoint Dewpoint Depression Visibility Wind Speed Wind Dir Waves Ship Positions

Otagawa

Last reported at 2016-Dec-07 05:28 UTC. Time now 2016-Dec-07 10:39 UTC.
Position N 35°20' E 139°43'.

Length 70 m; draft 4 m.

Type: Ship. MMSI: 431001328.

Date/timePositionNaut miles runAvg speedWind from/ knotsBaromVisibWave heightAir tempDewpointWater temp
2016-Dec-07 05:28N 35°20' E 139°43'910.1
2016-Dec-07 04:33N 35°29' E 139°39'0 0.1
2016-Dec-07 03:33N 35°29' E 139°39'0 0.0
2016-Dec-07 02:33N 35°29' E 139°39'0 0.0
2016-Dec-07 01:33N 35°29' E 139°39'3 2.6
2016-Dec-07 00:33N 35°28' E 139°42'0 0.1
2016-Dec-06 23:33N 35°28' E 139°42'0 0.0
2016-Dec-06 22:33N 35°28' E 139°42'2 1.7
2016-Dec-06 21:33N 35°26' E 139°43'0 0.0
2016-Dec-06 20:33N 35°26' E 139°43'3 1.6
2016-Dec-06 18:33N 35°23' E 139°41'1 0.7
2016-Dec-06 17:33N 35°24' E 139°41'0 0.0
2016-Dec-06 16:33N 35°24' E 139°41'1 1.1
2016-Dec-06 15:33N 35°23' E 139°40'0 0.1
2016-Dec-06 14:28N 35°23' E 139°40'0 0.0
2016-Dec-06 13:28N 35°23' E 139°40'14 7.5
2016-Dec-06 11:33N 35°09' E 139°46'  
2016-Nov-29 03:24N 35°02' E 139°44'1011.5
2016-Nov-29 02:33N 35°11' E 139°46'1110.8
2016-Nov-29 01:33N 35°22' E 139°42'6 5.9
2016-Nov-29 00:34N 35°28' E 139°42'0 0.0
2016-Nov-28 23:33N 35°28' E 139°42'0 0.0
2016-Nov-28 22:34N 35°28' E 139°42'1 1.0
2016-Nov-28 21:34N 35°27' E 139°43'1 0.6
2016-Nov-28 20:31N 35°27' E 139°43'0 0.0
2016-Nov-28 19:31N 35°27' E 139°43'0 0.0
2016-Nov-28 18:31N 35°27' E 139°43'0 0.0
2016-Nov-28 17:31N 35°27' E 139°43'0 0.0
2016-Nov-28 16:31N 35°27' E 139°43'0 0.1
2016-Nov-28 15:31N 35°27' E 139°43'0 0.0
2016-Nov-28 14:31N 35°27' E 139°43'4 3.8
2016-Nov-28 13:34N 35°23' E 139°41'1 0.8
2016-Nov-28 12:33N 35°24' E 139°41'0 0.1
2016-Nov-28 11:33N 35°24' E 139°41'1 1.4
2016-Nov-28 10:33N 35°23' E 139°41'0 0.0
2016-Nov-28 09:33N 35°23' E 139°41'0 0.0
2016-Nov-28 08:33N 35°23' E 139°41'0 0.0
2016-Nov-28 07:33N 35°23' E 139°41'0 0.0
2016-Nov-28 06:33N 35°23' E 139°41'0 0.0
2016-Nov-28 05:33N 35°23' E 139°41'1 1.3
2016-Nov-28 04:33N 35°22' E 139°42'1010.1
2016-Nov-28 03:33N 35°13' E 139°47'  
Track history (hours):
 
Tides and Currents Weather Stations Pressure Air Temp Water Temp Dewpoint Dewpoint Depression Visibility Wind Speed Wind Dir Waves Ship Positions

Otagawa

Last reported at 2016-Dec-07 05:28 UTC. Time now 2016-Dec-07 10:39 UTC.
Position N 35°20' E 139°43'.

Length 70 m; draft 4 m.

Type: Ship. MMSI: 431001328.

Date/timePositionNaut miles runAvg speedWind from/ knotsBaromVisibWave heightAir tempDewpointWater temp
2016-Dec-07 05:28N 35°20' E 139°43'910.1
2016-Dec-07 04:33N 35°29' E 139°39'0 0.1
2016-Dec-07 03:33N 35°29' E 139°39'0 0.0
2016-Dec-07 02:33N 35°29' E 139°39'0 0.0
2016-Dec-07 01:33N 35°29' E 139°39'3 2.6
2016-Dec-07 00:33N 35°28' E 139°42'0 0.1
2016-Dec-06 23:33N 35°28' E 139°42'0 0.0
2016-Dec-06 22:33N 35°28' E 139°42'2 1.7
2016-Dec-06 21:33N 35°26' E 139°43'0 0.0
2016-Dec-06 20:33N 35°26' E 139°43'3 1.6
2016-Dec-06 18:33N 35°23' E 139°41'1 0.7
2016-Dec-06 17:33N 35°24' E 139°41'0 0.0
2016-Dec-06 16:33N 35°24' E 139°41'1 1.1
2016-Dec-06 15:33N 35°23' E 139°40'0 0.1
2016-Dec-06 14:28N 35°23' E 139°40'0 0.0
2016-Dec-06 13:28N 35°23' E 139°40'14 7.5
2016-Dec-06 11:33N 35°09' E 139°46'  
2016-Nov-29 03:24N 35°02' E 139°44'1011.5
2016-Nov-29 02:33N 35°11' E 139°46'1110.8
2016-Nov-29 01:33N 35°22' E 139°42'6 5.9
2016-Nov-29 00:34N 35°28' E 139°42'0 0.0
2016-Nov-28 23:33N 35°28' E 139°42'0 0.0
2016-Nov-28 22:34N 35°28' E 139°42'1 1.0
2016-Nov-28 21:34N 35°27' E 139°43'1 0.6
2016-Nov-28 20:31N 35°27' E 139°43'0 0.0
2016-Nov-28 19:31N 35°27' E 139°43'0 0.0
2016-Nov-28 18:31N 35°27' E 139°43'0 0.0
2016-Nov-28 17:31N 35°27' E 139°43'0 0.0
2016-Nov-28 16:31N 35°27' E 139°43'0 0.1
2016-Nov-28 15:31N 35°27' E 139°43'0 0.0
2016-Nov-28 14:31N 35°27' E 139°43'4 3.8
2016-Nov-28 13:34N 35°23' E 139°41'1 0.8
2016-Nov-28 12:33N 35°24' E 139°41'0 0.1
2016-Nov-28 11:33N 35°24' E 139°41'1 1.4
2016-Nov-28 10:33N 35°23' E 139°41'0 0.0
2016-Nov-28 09:33N 35°23' E 139°41'0 0.0
2016-Nov-28 08:33N 35°23' E 139°41'0 0.0
2016-Nov-28 07:33N 35°23' E 139°41'0 0.0
2016-Nov-28 06:33N 35°23' E 139°41'0 0.0
2016-Nov-28 05:33N 35°23' E 139°41'1 1.3
2016-Nov-28 04:33N 35°22' E 139°42'1010.1
2016-Nov-28 03:33N 35°13' E 139°47'  

Dump ship's entire track history